Alaior, Spain
Current Conditions -  °F | °C
As of 9:00 AM on Friday 24 Oct 2014 (Local Time) from LEMH Reporting Station
Few Clouds Few Clouds  
Wind Chill: 61°   Ceiling: Unl
Heat Index: 61°   Visibility: 6mi
Dew Point: 52°   Wind: 6mph
Humidity: 72%   Direction: 350°N
Pressure: 30"   Gusts: NA
Location:  39.93°N, 4.14°E
Report Text: LEMH 240700Z 35005KT 9999 FEW018 16/11 Q1016
Loading
Personal Weather Stations






























Interactive Weather Map
Tropical Storm Tracking
New forecast layout! Learn more

10-Day Weather Forecast

Advertisements
Track Severe Weather on mobile